地図

経路データ

SID SEASON NUMBER BASIN SUBBASIN NAME ISO_TIME NATURE LAT LON WMO_WIND WMO_PRES WMO_AGENCY TRACK_TYPE DIST2LAND LANDFALL IFLAG USA_AGENCY USA_ATCF_ID USA_LAT USA_LON USA_RECORD USA_STATUS USA_WIND USA_PRES USA_SSHS USA_R34_NE USA_R34_SE USA_R34_SW USA_R34_NW USA_R50_NE USA_R50_SE USA_R50_SW USA_R50_NW USA_R64_NE USA_R64_SE USA_R64_SW USA_R64_NW USA_POCI USA_ROCI USA_RMW USA_EYE TOKYO_LAT TOKYO_LON TOKYO_GRADE TOKYO_WIND TOKYO_PRES TOKYO_R50_DIR TOKYO_R50_LONG TOKYO_R50_SHORT TOKYO_R30_DIR TOKYO_R30_LONG TOKYO_R30_SHORT TOKYO_LAND CMA_LAT CMA_LON CMA_CAT CMA_WIND CMA_PRES HKO_LAT HKO_LON HKO_CAT HKO_WIND HKO_PRES NEWDELHI_LAT NEWDELHI_LON NEWDELHI_GRADE NEWDELHI_WIND NEWDELHI_PRES NEWDELHI_CI NEWDELHI_DP NEWDELHI_POCI REUNION_LAT REUNION_LON REUNION_TYPE REUNION_WIND REUNION_PRES REUNION_TNUM REUNION_CI REUNION_RMW REUNION_R34_NE REUNION_R34_SE REUNION_R34_SW REUNION_R34_NW REUNION_R50_NE REUNION_R50_SE REUNION_R50_SW REUNION_R50_NW REUNION_R64_NE REUNION_R64_SE REUNION_R64_SW REUNION_R64_NW BOM_LAT BOM_LON BOM_TYPE BOM_WIND BOM_PRES BOM_TNUM BOM_CI BOM_RMW BOM_R34_NE BOM_R34_SE BOM_R34_SW BOM_R34_NW BOM_R50_NE BOM_R50_SE BOM_R50_SW BOM_R50_NW BOM_R64_NE BOM_R64_SE BOM_R64_SW BOM_R64_NW BOM_ROCI BOM_POCI BOM_EYE BOM_POS_METHOD BOM_PRES_METHOD NADI_LAT NADI_LON NADI_CAT NADI_WIND NADI_PRES WELLINGTON_LAT WELLINGTON_LON WELLINGTON_WIND WELLINGTON_PRES DS824_LAT DS824_LON DS824_STAGE DS824_WIND DS824_PRES TD9636_LAT TD9636_LON TD9636_STAGE TD9636_WIND TD9636_PRES TD9635_LAT TD9635_LON TD9635_WIND TD9635_PRES TD9635_ROCI NEUMANN_LAT NEUMANN_LON NEUMANN_CLASS NEUMANN_WIND NEUMANN_PRES MLC_LAT MLC_LON MLC_CLASS MLC_WIND MLC_PRES USA_GUST BOM_GUST BOM_GUST_PER REUNION_GUST REUNION_GUST_PER USA_SEAHGT USA_SEARAD_NE USA_SEARAD_SE USA_SEARAD_SW USA_SEARAD_NW STORM_SPEED STORM_DIR
1860052S10081 1860 8 SI MM NOT_NAMED 1860-02-21 06:00:00 NR -9.80000 80.7000 main 1759 1759 _____O________ -1 -9.80000 80.7000 99 9.90000 7 234
1860052S10081 1860 8 SI MM NOT_NAMED 1860-02-21 09:00:00 NR -9.99706 80.4228 main 1781 1781 _____P________ -1 -9.99706 80.4228 99 7 234
1860052S10081 1860 8 SI MM NOT_NAMED 1860-02-21 12:00:00 NR -10.1931 80.1467 main 1804 1804 _____P________ -1 -10.1931 80.1467 99 7 234
1860052S10081 1860 8 SI MM NOT_NAMED 1860-02-21 15:00:00 NR -10.3872 79.8732 main 1828 1828 _____P________ -1 -10.3872 79.8732 99 4 233
1860052S10081 1860 8 SI MM NOT_NAMED 1860-02-21 18:00:00 NR -10.4628 79.7832 main 1839 1839 _____P____O___ -1 -10.5786 79.6040 99 -10.0000 80.5000 7 4 231
1860052S10081 1860 8 SI MM NOT_NAMED 1860-02-21 21:00:00 NR -10.6315 79.5660 main 1852 1852 _____P____P___ -1 -10.7663 79.3406 99 -10.3617 80.0168 7 6 232
1860052S10081 1860 8 SI MM NOT_NAMED 1860-02-22 00:00:00 NR -10.8463 79.2866 main 1876 1876 _____P____P___ -1 -10.9497 79.0844 99 -10.7084 79.5563 7 7 232
1860052S10081 1860 8 SI MM NOT_NAMED 1860-02-22 03:00:00 NR -11.0769 78.9898 main 1913 1913 _____P____P___ -1 -11.1279 78.8370 99 -11.0259 79.1426 7 7 232
1860052S10081 1860 8 SI MM NOT_NAMED 1860-02-22 06:00:00 NR -11.3000 78.7000 reunion main 1938 1938 _____O____O___ -1 -11.3000 78.6000 99 9.90000 -11.3000 78.8000 7 7 231
1860052S10081 1860 8 SI MM NOT_NAMED 1860-02-22 09:00:00 NR -11.4938 78.4586 main 1963 1963 _____P____P___ -1 -11.4657 78.3742 99 -11.5218 78.5429 7 6 230
1860052S10081 1860 8 SI MM NOT_NAMED 1860-02-22 12:00:00 NR -11.6643 78.2522 main 1988 1988 _____P____P___ -1 -11.6266 78.1576 99 -11.7020 78.3469 7 5 230
1860052S10081 1860 8 SI MM NOT_NAMED 1860-02-22 15:00:00 NR -11.8204 78.0625 main 2002 2002 _____P____P___ -1 -11.7846 77.9476 99 -11.8562 78.1774 7 5 231
1860052S10081 1860 8 SI MM NOT_NAMED 1860-02-22 18:00:00 NR -11.9709 77.8707 main 2027 2027 _____P____O___ -1 -11.9417 77.7413 99 -12.0000 78.0000 7 5 233
1860052S10081 1860 8 SI MM NOT_NAMED 1860-02-22 21:00:00 NR -12.1224 77.6482 main 2043 2043 _____P____P___ -1 -12.0999 77.5362 99 -12.1450 77.7602 7 5 236
1860052S10081 1860 8 SI MM NOT_NAMED 1860-02-23 00:00:00 NR -12.2730 77.4184 main 2069 2069 _____P____P___ -1 -12.2610 77.3294 99 -12.2850 77.5073 7 5 236
1860052S10081 1860 8 SI MM NOT_NAMED 1860-02-23 03:00:00 NR -12.4298 77.1845 main 2084 2084 _____P____P___ -1 -12.4271 77.1183 99 -12.4325 77.2508 7 6 234
1860052S10081 1860 8 SI MM NOT_NAMED 1860-02-23 06:00:00 NR -12.6000 76.9500 reunion main 2110 2112 _____O____O___ -1 -12.6000 76.9000 99 9.90000 -12.6000 77.0000 7 6 231
1860052S10081 1860 8 SI MM NOT_NAMED 1860-02-23 09:00:00 NR -12.7996 76.7112 main 2139 2139 _____P____P___ -1 -12.7919 76.6545 99 -12.8074 76.7678 7 6 229
1860052S10081 1860 8 SI MM NOT_NAMED 1860-02-23 12:00:00 NR -13.0128 76.4720 main 2151 2112 _____P____P___ -1 -12.9908 76.4016 99 -13.0349 76.5425 7 6 227
1860052S10081 1860 8 SI MM NOT_NAMED 1860-02-23 15:00:00 NR -13.2321 76.2325 main 2112 2083 _____P____P___ -1 -13.1944 76.1442 99 -13.2699 76.3209 7 6 227
1860052S10081 1860 8 SI MM NOT_NAMED 1860-02-23 18:00:00 NR -13.4501 75.9927 main 2078 2054 _____P____O___ -1 -13.4003 75.8854 99 -13.5000 76.1000 7 6 228
1860052S10081 1860 8 SI MM NOT_NAMED 1860-02-23 21:00:00 NR -13.6607 75.7497 main 2040 2011 _____P____P___ -1 -13.6061 75.6285 99 -13.7153 75.8709 7 6 228
1860052S10081 1860 8 SI MM NOT_NAMED 1860-02-24 00:00:00 NR -13.8660 75.5095 main 2011 1982 _____P____P___ -1 -13.8096 75.3765 99 -13.9225 75.6424 7 6 229
1860052S10081 1860 8 SI MM NOT_NAMED 1860-02-24 03:00:00 NR -14.0634 75.2752 main 1982 1958 _____P____P___ -1 -14.0083 75.1326 99 -14.1184 75.4178 7 6 229
1860052S10081 1860 8 SI MM NOT_NAMED 1860-02-24 06:00:00 NR -14.2500 75.0500 reunion main 1958 1930 _____O____O___ -1 -14.2000 74.9000 99 9.90000 -14.3000 75.2000 7 6 230
1860052S10081 1860 8 SI MM NOT_NAMED 1860-02-24 09:00:00 NR -14.4154 74.8415 main 1920 1901 _____P____P___ -1 -14.3665 74.6943 99 -14.4643 74.9886 7 5 231
1860052S10081 1860 8 SI MM NOT_NAMED 1860-02-24 12:00:00 NR -14.5703 74.6424 main 1891 1877 _____P____P___ -1 -14.5256 74.5001 99 -14.6149 74.7848 7 5 231
1860052S10081 1860 8 SI MM NOT_NAMED 1860-02-24 15:00:00 NR -14.7193 74.4513 main 1877 1849 _____P____P___ -1 -14.6804 74.3141 99 -14.7581 74.5886 7 5 231
1860052S10081 1860 8 SI MM NOT_NAMED 1860-02-24 18:00:00 NR -14.8671 74.2666 main 1849 1825 _____P____O___ -1 -14.8341 74.1333 99 -14.9000 74.4000 7 5 229
1860052S10081 1860 8 SI MM NOT_NAMED 1860-02-24 21:00:00 NR -15.0137 74.0942 main 1825 1797 _____P____P___ -1 -14.9898 73.9546 99 -15.0376 74.2338 7 4 228
1860052S10081 1860 8 SI MM NOT_NAMED 1860-02-25 00:00:00 NR -15.1639 73.9235 main 1797 1783 _____P____P___ -1 -15.1506 73.7750 99 -15.1772 74.0721 7 5 227
1860052S10081 1860 8 SI MM NOT_NAMED 1860-02-25 03:00:00 NR -15.3239 73.7452 main 1773 1755 _____P____P___ -1 -15.3196 73.5911 99 -15.3282 73.8993 7 5 227
1860052S10081 1860 8 SI MM NOT_NAMED 1860-02-25 06:00:00 NR -15.5000 73.5500 reunion main 1755 1717 _____O____O___ -1 -15.5000 73.4000 99 9.90000 -15.5000 73.7000 7 6 228
1860052S10081 1860 8 SI MM NOT_NAMED 1860-02-25 09:00:00 NR -15.7075 73.3098 main 1717 1689 _____P____P___ -1 -15.7114 73.1778 99 -15.7036 73.4417 7 6 228
1860052S10081 1860 8 SI MM NOT_NAMED 1860-02-25 12:00:00 NR -15.9312 73.0528 main 1689 1648 _____P____P___ -1 -15.9346 72.9479 99 -15.9277 73.1577 7 7 227
1860052S10081 1860 8 SI MM NOT_NAMED 1860-02-25 15:00:00 NR -16.1643 72.7917 main 1648 1621 _____P____P___ -1 -16.1656 72.7136 99 -16.1630 72.8698 7 7 226
1860052S10081 1860 8 SI MM NOT_NAMED 1860-02-25 18:00:00 NR -16.4002 72.5392 main 1611 1583 _____P____O___ -1 -16.4004 72.4785 99 -16.4000 72.6000 7 7 225
1860052S10081 1860 8 SI MM NOT_NAMED 1860-02-25 21:00:00 NR -16.6320 72.3081 main 1583 1556 _____P____P___ -1 -16.6352 72.2460 99 -16.6289 72.3702 7 6 223
1860052S10081 1860 8 SI MM NOT_NAMED 1860-02-26 00:00:00 NR -16.8616 72.0910 main 1553 1527 _____P____P___ -1 -16.8659 72.0197 99 -16.8573 72.1623 7 6 221
1860052S10081 1860 8 SI MM NOT_NAMED 1860-02-26 03:00:00 NR -17.0855 71.8883 main 1527 1500 _____P____P___ -1 -17.0888 71.8032 99 -17.0821 71.9733 7 6 220
1860052S10081 1860 8 SI MM NOT_NAMED 1860-02-26 06:00:00 NR -17.3000 71.7000 reunion main 1500 1474 _____O____O___ -1 -17.3000 71.6000 99 9.90000 -17.3000 71.8000 7 5 220
1860052S10081 1860 8 SI MM NOT_NAMED 1860-02-26 09:00:00 NR -17.5042 71.5257 main 1474 1458 _____P____P___ -1 -17.4931 71.4159 99 -17.5152 71.6355 7 5 219
1860052S10081 1860 8 SI MM NOT_NAMED 1860-02-26 12:00:00 NR -17.6995 71.3644 main 1458 1432 _____P____P___ -1 -17.6767 71.2440 99 -17.7224 71.4848 7 5 218
1860052S10081 1860 8 SI MM NOT_NAMED 1860-02-26 15:00:00 NR -17.8848 71.2124 main 1432 1420 _____P____P___ -1 -17.8512 71.0830 99 -17.9184 71.3418 7 5 218
1860052S10081 1860 8 SI MM NOT_NAMED 1860-02-26 18:00:00 NR -18.0585 71.0658 main 1417 1394 _____P____O___ -1 -18.0170 70.9317 99 -18.1000 71.2000 7 4 220
1860052S10081 1860 8 SI MM NOT_NAMED 1860-02-26 21:00:00 NR -18.2199 70.9217 main 1394 1379 _____P____P___ -1 -18.1743 70.7890 99 -18.2654 71.0545 7 4 223
1860052S10081 1860 8 SI MM NOT_NAMED 1860-02-27 00:00:00 NR -18.3640 70.7614 main 1379 1357 _____P____P___ -1 -18.3237 70.6536 99 -18.4176 70.9052 7 4 228
1860052S10081 1860 8 SI MM NOT_NAMED 1860-02-27 03:00:00 NR -18.4974 70.6007 main 1357 1334 _____P____P___ -1 -18.4655 70.5243 99 -18.5611 70.7533 7 4 230
1860052S10081 1860 8 SI MM NOT_NAMED 1860-02-27 06:00:00 NR -18.6200 70.4400 reunion main 1334 1322 _____O____O___ -1 -18.6000 70.4000 99 9.90000 -18.7000 70.6000 7 4 233
1860052S10081 1860 8 SI MM NOT_NAMED 1860-02-27 09:00:00 NR -18.7277 70.2795 main 1322 1309 _____P________ -1 -18.7277 70.2795 99 7 4 229
1860052S10081 1860 8 SI MM NOT_NAMED 1860-02-27 12:00:00 NR -18.8493 70.1622 main 1309 1295 _____P________ -1 -18.8493 70.1622 99 7 3 223
1860052S10081 1860 8 SI MM NOT_NAMED 1860-02-27 15:00:00 NR -18.9657 70.0477 main 1285 1273 _____P________ -1 -18.9657 70.0477 99 7 3 223
1860052S10081 1860 8 SI MM NOT_NAMED 1860-02-27 18:00:00 NR -19.0778 69.9355 main 1273 1261 _____P________ -1 -19.0778 69.9355 99 3 223
1860052S10081 1860 8 SI MM NOT_NAMED 1860-02-27 21:00:00 NR -19.1865 69.8251 main 1261 1249 _____P________ -1 -19.1865 69.8251 99 3 224
1860052S10081 1860 8 SI MM NOT_NAMED 1860-02-28 00:00:00 NR -19.2925 69.7161 main 1249 1237 _____P________ -1 -19.2925 69.7161 99 3 224
1860052S10081 1860 8 SI MM NOT_NAMED 1860-02-28 03:00:00 NR -19.3967 69.6079 main 1237 1226 _____P________ -1 -19.3967 69.6079 99 3 225
1860052S10081 1860 8 SI MM NOT_NAMED 1860-02-28 06:00:00 NR -19.5000 69.5000 reunion main 1226 _____O________ -1 -19.5000 69.5000 99 9.90000 3 226

IBTrACS Databaseについて

本データベースは、米国NOAAが公開する1842年以降の世界の熱帯低気圧のベストトラックデータアーカイブInternational Best Track Archive for Climate Stewardship (IBTrACS)を、ウェブで閲覧しやすい形式に変換したものです。

最終更新日:2021-10-08